createdAt,value
2023-01-24T00:00:41.168Z,101616.50
2023-01-24T00:03:53.828Z,101614.25
2023-01-24T00:07:06.414Z,101613.34
2023-01-24T00:10:19.116Z,101624.47
2023-01-24T00:13:31.564Z,101620.81
2023-01-24T00:16:44.396Z,101622.94
2023-01-24T00:19:56.703Z,101624.84
2023-01-24T00:23:09.336Z,101630.25
2023-01-24T00:26:22.453Z,101630.25
2023-01-24T00:29:35.079Z,101629.06
2023-01-24T00:32:47.563Z,101635.41
2023-01-24T00:36:00.302Z,101642.88
2023-01-24T00:39:12.709Z,101641.50
2023-01-24T00:42:25.585Z,101648.75
2023-01-24T00:45:38.146Z,101651.78
2023-01-24T00:48:50.801Z,101646.59
2023-01-24T00:52:03.525Z,101650.63
2023-01-24T00:55:16.286Z,101654.13
2023-01-24T00:58:28.844Z,101649.91
2023-01-24T01:01:41.436Z,101654.72
2023-01-24T01:04:55.711Z,101648.44
2023-01-24T01:08:08.459Z,101645.41
2023-01-24T01:11:21.088Z,101650.66
2023-01-24T01:14:33.652Z,101648.19
2023-01-24T01:17:46.017Z,101654.13
2023-01-24T01:20:58.667Z,101655.75
2023-01-24T01:24:11.623Z,101657.22
2023-01-24T01:27:24.280Z,101652.44
2023-01-24T01:30:36.608Z,101658.78
2023-01-24T01:33:49.314Z,101661.59
2023-01-24T01:37:01.643Z,101664.19
2023-01-24T01:40:14.372Z,101658.13
2023-01-24T01:43:28.683Z,101666.53
2023-01-24T01:46:43.706Z,101668.22
2023-01-24T01:50:16.183Z,101656.44
2023-01-24T01:53:31.097Z,101664.25
2023-01-24T01:56:53.879Z,101668.72
2023-01-24T02:00:10.246Z,101674.13
2023-01-24T02:03:39.455Z,101673.44
2023-01-24T02:07:13.501Z,101670.22
2023-01-24T02:10:46.235Z,101674.25
2023-01-24T02:14:18.992Z,101673.53
2023-01-24T02:17:31.838Z,101674.34
2023-01-24T02:20:44.935Z,101686.56
2023-01-24T02:24:05.661Z,101681.28
2023-01-24T02:27:18.126Z,101685.28
2023-01-24T02:30:31.792Z,101686.09
2023-01-24T02:33:44.453Z,101677.31
2023-01-24T02:37:05.015Z,101682.34
2023-01-24T02:40:17.563Z,101685.16
2023-01-24T02:43:32.889Z,101685.75
2023-01-24T02:46:45.860Z,101686.81
2023-01-24T02:49:58.538Z,101684.81
2023-01-24T02:53:29.797Z,101689.88
2023-01-24T02:57:02.094Z,101687.28
2023-01-24T03:00:14.718Z,101691.72
2023-01-24T03:03:28.041Z,101690.69
2023-01-24T03:06:40.461Z,101692.81
2023-01-24T03:09:53.152Z,101694.00
2023-01-24T03:13:24.494Z,101704.22
2023-01-24T03:16:56.185Z,101703.28
2023-01-24T03:20:27.546Z,101710.44
2023-01-24T03:23:58.950Z,101705.38
2023-01-24T03:27:30.371Z,101709.59
2023-01-24T03:31:01.923Z,101709.88
2023-01-24T03:34:31.657Z,101714.53
2023-01-24T03:38:03.148Z,101713.84
2023-01-24T03:41:15.933Z,101707.25
2023-01-24T03:44:29.375Z,101715.00
2023-01-24T03:47:41.876Z,101712.66
2023-01-24T03:51:13.753Z,101715.13
2023-01-24T03:54:26.231Z,101712.66
2023-01-24T03:57:39.143Z,101715.94
2023-01-24T04:00:53.103Z,101711.37
2023-01-24T04:04:06.802Z,101716.19
2023-01-24T04:07:26.566Z,101721.56
2023-01-24T04:10:40.174Z,101712.06
2023-01-24T04:13:53.138Z,101713.81
2023-01-24T04:17:05.927Z,101716.19
2023-01-24T04:20:18.977Z,101718.97
2023-01-24T04:23:31.747Z,101720.63
2023-01-24T04:26:44.255Z,101716.28
2023-01-24T04:29:57.792Z,101717.19
2023-01-24T04:33:10.160Z,101715.03
2023-01-24T04:36:22.831Z,101719.47
2023-01-24T04:39:35.212Z,101722.59
2023-01-24T04:42:48.423Z,101723.44
2023-01-24T04:46:00.841Z,101724.72
2023-01-24T04:49:14.415Z,101723.34
2023-01-24T04:52:27.291Z,101720.97
2023-01-24T04:55:40.576Z,101731.19
2023-01-24T04:58:52.994Z,101737.25
2023-01-24T05:02:05.679Z,101728.13
2023-01-24T05:05:18.416Z,101733.22
2023-01-24T05:08:31.460Z,101735.88
2023-01-24T05:32:38.426Z,101745.06
2023-01-24T05:36:00.537Z,101745.06
2023-01-24T05:39:13.455Z,101747.25
2023-01-24T05:42:28.129Z,101753.56
2023-01-24T05:45:40.891Z,101758.72
2023-01-24T05:48:54.098Z,101759.94
2023-01-24T05:52:06.634Z,101760.38
2023-01-24T05:55:20.988Z,101757.75
2023-01-24T05:58:35.704Z,101755.44
2023-01-24T06:01:49.007Z,101769.16
2023-01-24T06:05:02.444Z,101755.44
2023-01-24T06:08:15.127Z,101756.13
2023-01-24T06:11:29.400Z,101763.50
2023-01-24T06:14:44.169Z,101772.56
2023-01-24T06:17:56.794Z,101759.16
2023-01-24T06:21:35.402Z,101763.81
2023-01-24T06:24:48.280Z,101764.44
2023-01-24T06:28:01.278Z,101764.53
2023-01-24T06:31:37.725Z,101765.91
2023-01-24T06:35:14.870Z,101762.47
2023-01-24T06:38:27.771Z,101762.72
2023-01-24T06:41:40.328Z,101776.69
2023-01-24T06:44:52.965Z,101776.25
2023-01-24T06:48:05.772Z,101779.91
2023-01-24T06:51:18.645Z,101788.84
2023-01-24T06:54:31.086Z,101791.00
2023-01-24T06:57:44.835Z,101793.25
2023-01-24T07:00:57.219Z,101795.38
2023-01-24T07:04:10.957Z,101795.94
2023-01-24T07:07:23.313Z,101804.25
2023-01-24T07:10:35.965Z,101800.25
2023-01-24T07:13:49.439Z,101804.13
2023-01-24T07:17:02.334Z,101809.37
2023-01-24T07:20:15.046Z,101809.37
2023-01-24T07:23:33.306Z,101810.31
2023-01-24T07:26:45.940Z,101805.63
2023-01-24T07:29:58.914Z,101813.72
2023-01-24T07:33:12.040Z,101819.47
2023-01-24T07:36:24.669Z,101825.50
2023-01-24T07:39:37.081Z,101825.53
2023-01-24T07:42:49.806Z,101824.16
2023-01-24T07:46:02.261Z,101819.69
2023-01-24T07:49:14.891Z,101825.44
2023-01-24T07:52:27.234Z,101834.25
2023-01-24T07:55:41.141Z,101840.72
2023-01-24T07:58:54.712Z,101842.63
2023-01-24T08:02:09.361Z,101841.31
2023-01-24T08:05:22.048Z,101844.03
2023-01-24T08:08:34.424Z,101848.25
2023-01-24T08:11:47.087Z,101849.63
2023-01-24T08:14:59.547Z,101853.28
2023-01-24T08:18:12.320Z,101857.37
2023-01-24T08:21:24.725Z,101865.16
2023-01-24T08:24:39.451Z,101859.31
2023-01-24T08:27:51.839Z,101857.53
2023-01-24T08:31:04.993Z,101855.34
2023-01-24T08:34:17.387Z,101871.28
2023-01-24T08:37:30.067Z,101867.06
2023-01-24T08:40:49.368Z,101871.75
2023-01-24T08:44:03.845Z,101870.34
2023-01-24T08:47:16.180Z,101880.25
2023-01-24T08:50:28.810Z,101876.56
2023-01-24T08:53:42.173Z,101870.34
2023-01-24T08:56:55.082Z,101870.09
2023-01-24T09:00:08.338Z,101868.22
2023-01-24T09:03:21.016Z,101872.12
2023-01-24T09:06:33.343Z,101874.13
2023-01-24T09:09:45.983Z,101874.09
2023-01-24T09:12:58.296Z,101867.75
2023-01-24T09:16:11.006Z,101866.12
2023-01-24T09:19:28.027Z,101871.75
2023-01-24T09:22:40.654Z,101867.97
2023-01-24T09:25:53.183Z,101870.31
2023-01-24T09:29:05.860Z,101873.34
2023-01-24T09:32:18.348Z,101880.03
2023-01-24T09:35:31.301Z,101876.38
2023-01-24T09:38:50.001Z,101876.53
2023-01-24T09:42:36.485Z,101869.81
2023-01-24T09:45:53.089Z,101858.66
2023-01-24T09:49:09.445Z,101863.81
2023-01-24T09:52:27.936Z,101862.66
2023-01-24T09:55:44.011Z,101861.56
2023-01-24T09:59:13.410Z,101857.28
2023-01-24T10:02:28.625Z,101855.41
2023-01-24T10:05:41.907Z,101847.72
2023-01-24T10:09:08.529Z,101845.81
2023-01-24T10:12:30.506Z,101848.56
2023-01-24T10:15:55.014Z,101841.56
2023-01-24T10:19:26.318Z,101846.50
2023-01-24T10:22:44.286Z,101855.94
2023-01-24T10:26:04.958Z,101847.66
2023-01-24T10:29:18.222Z,101847.97
2023-01-24T10:32:32.679Z,101846.38
2023-01-24T10:35:57.231Z,101833.69
2023-01-24T10:39:13.451Z,101841.97
2023-01-24T10:42:30.326Z,101840.53
2023-01-24T10:46:15.884Z,101828.94
2023-01-24T10:49:30.276Z,101830.31
2023-01-24T10:52:43.491Z,101826.75
2023-01-24T10:56:00.725Z,101825.47
2023-01-24T10:59:14.128Z,101821.50
2023-01-24T11:02:27.554Z,101813.47
2023-01-24T11:05:50.897Z,101805.69
2023-01-24T11:09:05.903Z,101801.53
2023-01-24T11:12:21.647Z,101799.50
2023-01-24T11:15:34.057Z,101797.16
2023-01-24T11:18:53.175Z,101783.47
2023-01-24T11:22:22.953Z,101784.03
2023-01-24T11:25:35.608Z,101776.53
2023-01-24T11:29:02.161Z,101773.41
2023-01-24T11:32:46.294Z,101785.00
2023-01-24T11:36:04.515Z,101775.13
2023-01-24T11:39:38.721Z,101770.09
2023-01-24T11:43:02.864Z,101766.38
2023-01-24T11:46:41.469Z,101765.03
2023-01-24T11:50:06.811Z,101763.91
2023-01-24T11:53:44.558Z,101765.28
2023-01-24T11:57:05.954Z,101755.13
2023-01-24T12:00:36.903Z,101758.66
2023-01-24T12:04:14.285Z,101756.47
2023-01-24T12:07:48.163Z,101743.53
2023-01-24T12:11:35.172Z,101748.97
2023-01-24T12:15:12.738Z,101756.41
2023-01-24T12:18:52.720Z,101751.56
2023-01-24T12:22:11.259Z,101759.22
2023-01-24T12:25:31.525Z,101747.44
2023-01-24T12:29:01.096Z,101759.16
2023-01-24T12:32:24.359Z,101752.09
2023-01-24T12:35:42.857Z,101748.69
2023-01-24T12:38:56.571Z,101753.50
2023-01-24T12:42:20.141Z,101746.91
2023-01-24T12:45:32.846Z,101748.06
2023-01-24T12:48:51.585Z,101750.28
2023-01-24T12:52:33.009Z,101747.38
2023-01-24T12:56:21.956Z,101742.06
2023-01-24T12:59:35.836Z,101739.34
2023-01-24T13:03:07.824Z,101742.34
2023-01-24T13:06:50.962Z,101730.59
2023-01-24T13:10:22.720Z,101729.06
2023-01-24T13:13:40.363Z,101728.81
2023-01-24T13:16:59.405Z,101726.69
2023-01-24T13:20:36.559Z,101728.84
2023-01-24T13:23:51.605Z,101727.34
2023-01-24T13:27:23.011Z,101741.16
2023-01-24T13:31:10.708Z,101736.62
2023-01-24T13:34:32.699Z,101741.72
2023-01-24T13:37:50.840Z,101739.56
2023-01-24T13:41:05.798Z,101735.63
2023-01-24T13:44:27.520Z,101733.94
2023-01-24T13:47:40.205Z,101735.34
2023-01-24T13:51:17.275Z,101744.56
2023-01-24T13:54:42.976Z,101729.53
2023-01-24T13:58:13.981Z,101738.16
2023-01-24T14:01:26.709Z,101736.88
2023-01-24T14:04:41.593Z,101736.56
2023-01-24T14:07:53.970Z,101741.53
2023-01-24T14:11:07.003Z,101739.13
2023-01-24T14:14:32.779Z,101728.81
2023-01-24T14:17:49.803Z,101737.19
2023-01-24T14:21:03.260Z,101739.69
2023-01-24T14:24:30.268Z,101735.97
2023-01-24T14:27:58.160Z,101738.75
2023-01-24T14:31:34.636Z,101743.81
2023-01-24T14:35:00.829Z,101738.50
2023-01-24T14:38:17.700Z,101740.44
2023-01-24T14:41:30.017Z,101747.00
2023-01-24T14:44:55.917Z,101748.53
2023-01-24T14:48:09.195Z,101752.72
2023-01-24T14:51:25.263Z,101756.28
2023-01-24T14:54:37.648Z,101751.50
2023-01-24T14:57:50.342Z,101754.34
2023-01-24T15:01:03.397Z,101749.97
2023-01-24T15:04:31.575Z,101753.47
2023-01-24T15:07:47.026Z,101749.22
2023-01-24T15:11:04.863Z,101746.63
2023-01-24T15:14:19.475Z,101756.50
2023-01-24T15:17:32.915Z,101753.91
2023-01-24T15:20:48.095Z,101762.75
2023-01-24T15:24:00.755Z,101761.16
2023-01-24T15:27:22.136Z,101765.84
2023-01-24T15:30:34.874Z,101769.03
2023-01-24T15:33:47.218Z,101768.94
2023-01-24T15:37:01.002Z,101772.31
2023-01-24T15:40:20.335Z,101774.44
2023-01-24T15:43:46.797Z,101776.00
2023-01-24T15:47:18.066Z,101776.19
2023-01-24T15:50:49.265Z,101776.50
2023-01-24T15:54:01.673Z,101777.94
2023-01-24T15:57:33.997Z,101775.38
2023-01-24T16:00:56.535Z,101781.25
2023-01-24T16:04:15.031Z,101773.50
2023-01-24T16:07:27.437Z,101784.09
2023-01-24T16:10:40.264Z,101789.75
2023-01-24T16:13:56.677Z,101803.94
2023-01-24T16:17:09.546Z,101800.97
2023-01-24T16:20:27.764Z,101800.25
2023-01-24T16:23:40.422Z,101804.47
2023-01-24T16:26:53.471Z,101796.88
2023-01-24T16:30:07.828Z,101807.56
2023-01-24T16:33:20.883Z,101802.50
2023-01-24T16:36:33.931Z,101805.03
2023-01-24T16:39:46.583Z,101807.69
2023-01-24T16:42:59.219Z,101802.69
2023-01-24T16:46:21.223Z,101810.31
2023-01-24T16:49:33.848Z,101806.06
2023-01-24T16:52:46.476Z,101814.22
2023-01-24T16:55:59.153Z,101817.25
2023-01-24T16:59:11.459Z,101808.75
2023-01-24T17:02:24.207Z,101805.03
2023-01-24T17:05:37.092Z,101805.16
2023-01-24T17:08:52.898Z,101814.16
2023-01-24T17:12:14.229Z,101813.94
2023-01-24T17:15:27.327Z,101807.56
2023-01-24T17:18:40.676Z,101795.38
2023-01-24T17:21:53.258Z,101808.44
2023-01-24T17:25:06.004Z,101814.22
2023-01-24T17:28:18.664Z,101813.19
2023-01-24T17:31:32.786Z,101812.16
2023-01-24T17:34:45.491Z,101808.25
2023-01-24T17:37:57.849Z,101806.81
2023-01-24T17:41:17.382Z,101812.50
2023-01-24T17:44:29.774Z,101813.31
2023-01-24T17:47:42.486Z,101820.84
2023-01-24T17:50:56.978Z,101820.13
2023-01-24T17:54:12.817Z,101820.41
2023-01-24T17:57:25.193Z,101828.47
2023-01-24T18:00:38.297Z,101822.47
2023-01-24T18:03:50.915Z,101823.50
2023-01-24T18:07:03.247Z,101824.53
2023-01-24T18:10:16.119Z,101827.91
2023-01-24T18:13:28.471Z,101823.87
2023-01-24T18:16:41.137Z,101823.06
2023-01-24T18:19:53.524Z,101823.03
2023-01-24T18:23:06.719Z,101825.47
2023-01-24T18:26:19.088Z,101831.22
2023-01-24T18:29:31.734Z,101829.09
2023-01-24T18:32:44.143Z,101830.41
2023-01-24T18:35:56.770Z,101833.75
2023-01-24T18:39:09.093Z,101840.59
2023-01-24T18:42:21.709Z,101827.38
2023-01-24T18:45:34.116Z,101834.94
2023-01-24T18:48:46.768Z,101828.72
2023-01-24T18:51:59.532Z,101826.97
2023-01-24T18:55:14.205Z,101826.16
2023-01-24T18:58:26.632Z,101830.00
2023-01-24T19:01:39.580Z,101825.69
2023-01-24T19:04:51.946Z,101829.47
2023-01-24T19:08:04.595Z,101830.41
2023-01-24T19:11:16.933Z,101831.03
2023-01-24T19:14:30.899Z,101841.78
2023-01-24T19:17:43.250Z,101834.81
2023-01-24T19:20:56.578Z,101834.09
2023-01-24T19:24:09.406Z,101840.97
2023-01-24T19:27:22.071Z,101844.94
2023-01-24T19:30:34.523Z,101840.34
2023-01-24T19:33:50.670Z,101837.22
2023-01-24T19:37:06.203Z,101844.38
2023-01-24T19:40:19.153Z,101837.78
2023-01-24T19:43:31.563Z,101841.25
2023-01-24T19:46:44.231Z,101841.44
2023-01-24T19:49:56.610Z,101841.81
2023-01-24T19:53:10.041Z,101846.75
2023-01-24T19:56:22.382Z,101848.78
2023-01-24T19:59:34.986Z,101861.16
2023-01-24T20:02:47.440Z,101851.72
2023-01-24T20:06:06.084Z,101852.44
2023-01-24T20:09:18.406Z,101855.38
2023-01-24T20:12:31.028Z,101851.50
2023-01-24T20:15:43.343Z,101855.19
2023-01-24T20:19:00.809Z,101855.19
2023-01-24T20:22:13.169Z,101850.41
2023-01-24T20:25:25.992Z,101855.00
2023-01-24T20:28:38.964Z,101850.78
2023-01-24T20:31:51.745Z,101847.06
2023-01-24T20:35:06.131Z,101856.41
2023-01-24T20:38:19.434Z,101842.09
2023-01-24T20:41:36.222Z,101850.19
2023-01-24T20:44:48.886Z,101856.22
2023-01-24T20:48:01.298Z,101862.62
2023-01-24T20:51:13.916Z,101857.84
2023-01-24T20:54:26.268Z,101855.84
2023-01-24T20:57:38.922Z,101870.72
2023-01-24T21:00:51.992Z,101861.19
2023-01-24T21:04:06.912Z,101854.72
2023-01-24T21:07:19.236Z,101861.31
2023-01-24T21:10:31.845Z,101868.09
2023-01-24T21:13:44.160Z,101876.94
2023-01-24T21:16:57.017Z,101873.66
2023-01-24T21:20:12.347Z,101887.81
2023-01-24T21:23:26.582Z,101885.25
2023-01-24T21:26:39.031Z,101889.06
2023-01-24T21:29:51.664Z,101885.00
2023-01-24T21:33:04.112Z,101887.97
2023-01-24T21:36:18.860Z,101886.22
2023-01-24T21:39:31.322Z,101883.12
2023-01-24T21:42:44.000Z,101889.56
2023-01-24T21:45:56.325Z,101886.47
2023-01-24T21:49:10.066Z,101879.09
2023-01-24T21:52:22.383Z,101884.91
2023-01-24T21:55:54.974Z,101886.47
2023-01-24T21:59:07.324Z,101875.03
2023-01-24T22:02:21.886Z,101869.62
2023-01-24T22:05:34.488Z,101867.66
2023-01-24T22:08:47.062Z,101877.78
2023-01-24T22:11:59.656Z,101874.66
2023-01-24T22:15:15.503Z,101864.37
2023-01-24T22:18:28.343Z,101859.63
2023-01-24T22:21:50.121Z,101867.97
2023-01-24T22:25:17.688Z,101873.91
2023-01-24T22:28:30.417Z,101874.94
2023-01-24T22:31:43.459Z,101862.16
2023-01-24T22:34:57.871Z,101868.03
2023-01-24T22:38:10.608Z,101852.94
2023-01-24T22:41:23.013Z,101864.16
2023-01-24T22:44:35.603Z,101857.06
2023-01-24T22:47:47.895Z,101857.25
2023-01-24T22:51:00.493Z,101854.69
2023-01-24T22:54:12.992Z,101851.06
2023-01-24T22:57:25.656Z,101850.25
2023-01-24T23:00:38.036Z,101850.69
2023-01-24T23:03:50.663Z,101857.06
2023-01-24T23:07:03.424Z,101852.53
2023-01-24T23:10:16.397Z,101855.44
2023-01-24T23:13:47.050Z,101861.00
2023-01-24T23:17:05.413Z,101857.81
2023-01-24T23:20:36.374Z,101854.13
2023-01-24T23:23:48.997Z,101855.41
2023-01-24T23:27:01.567Z,101857.84
2023-01-24T23:30:14.295Z,101843.75
2023-01-24T23:33:33.847Z,101854.94
2023-01-24T23:36:46.503Z,101855.69
2023-01-24T23:39:58.948Z,101846.94
2023-01-24T23:43:12.583Z,101858.22
2023-01-24T23:46:24.947Z,101856.66
2023-01-24T23:49:37.651Z,101860.47
2023-01-24T23:52:50.079Z,101858.00
2023-01-24T23:56:02.744Z,101853.44
2023-01-24T23:59:15.117Z,101853.84
